ESMT/HAD METAR and TAF weather

Enter ICAO airport designator
Station Type Date Time Source
ESMT METAR 2019/02/23 16:50 UTC NOAA

ESMT 231650Z AUTO 24004KT 9999 NCD 02/M00 Q1039


Station Type Date Time Source
ESMT Decoded METAR 2019/02/23 16:50 UTC NOAA

Halmstad Swedish Air Force Base , Sweden (ESMT) 56-41N 012-50E
Feb 23, 2019 - 11:50 AM EST / 2019.02.23 1650 UTC
Wind: from the WSW (240 degrees) at 5 MPH (4 KT):0
Visibility: greater than 7 mile(s):0
Temperature: 35 F (2 C)
Windchill: 30 F (-1 C):1
Dew Point: 32 F (0 C)
Relative Humidity: 86%
Pressure (altimeter): 30.68 in. Hg (1039 hPa)
ob: ESMT 231650Z AUTO 24004KT 9999 NCD 02/M00 Q1039
cycle: 17

Station Type Date Time Source
ESMT TAF 2017/04/24 06:33 UTC NOAA

TAF TAF ESMT 240513Z 2406/2506 22018KT 9999 BKN018
TEMPO 2406/2413 22018G30KT 4000 RADZ BKN008
TEMPO 2413/2415 24020G30KT 4000 SHRA BKN014 SCT020CB


Example: see airport list